Time;durP1;ratioP1;P1;durP2;ratioP2;P2;SDS_P1;SDS_P2;PMS_P1;PMS_P2;Temp;Humidity;BMP_temperature;BMP_pressure;BME280_temperature;BME280_humidity;BME280_pressure;Samples;Min_cycle;Max_cycle;Signal;HPM_P1;HPM_P2
2023/10/21 00:04:02;;;;;;;16.52;14.93;;;;;;;10.10;100.00;151215.34;10503479;28;20041;-70
2023/10/21 00:09:04;;;;;;;16.65;14.90;;;;;;;10.31;100.00;151268.34;10503734;28;20040;-70
2023/10/21 00:14:08;;;;;;;15.48;13.95;;;;;;;10.41;100.00;151292.84;10506560;28;20032;-70
2023/10/21 00:19:10;;;;;;;15.73;14.13;;;;;;;10.06;100.00;151205.03;10495498;28;20053;-70
2023/10/21 00:24:12;;;;;;;14.48;13.07;;;;;;;9.83;100.00;151145.66;10502729;28;20447;-69
2023/10/21 00:29:17;;;;;;;16.30;14.13;;;;;;;9.70;100.00;151113.41;10485248;28;20492;-70
2023/10/21 00:34:19;;;;;;;13.82;12.40;;;;;;;9.63;100.00;151095.31;10505972;28;20040;-70
2023/10/21 00:39:22;;;;;;;16.42;14.73;;;;;;;10.00;100.00;151188.22;10502744;28;20067;-70
2023/10/21 00:44:24;;;;;;;16.08;14.15;;;;;;;9.84;100.00;151148.25;10502688;28;20033;-70
2023/10/21 00:49:28;;;;;;;15.07;13.68;;;;;;;9.66;100.00;151101.78;10502139;28;20123;-70
2023/10/21 00:54:30;;;;;;;15.52;13.63;;;;;;;9.47;100.00;151055.31;10501955;28;20115;-70
2023/10/21 00:59:32;;;;;;;14.45;13.05;;;;;;;9.75;100.00;151125.00;10504601;28;20119;-69
2023/10/21 01:04:34;;;;;;;14.93;13.57;;;;;;;10.08;100.00;151210.16;10501146;28;20032;-70
2023/10/21 01:09:36;;;;;;;14.50;13.10;;;;;;;9.94;100.00;151172.75;10501317;28;20033;-69
2023/10/21 01:14:38;;;;;;;11.05;10.00;;;;;;;9.61;100.00;151090.19;10501732;28;20511;-69
2023/10/21 01:19:40;;;;;;;13.02;11.82;;;;;;;9.67;100.00;151105.66;10485740;28;20052;-70
2023/10/21 01:24:42;;;;;;;14.25;12.68;;;;;;;9.97;100.00;151181.78;10482625;28;20105;-70
2023/10/21 01:29:43;;;;;;;13.82;12.18;;;;;;;9.82;100.00;151143.06;10482748;28;20055;-69
2023/10/21 01:34:45;;;;;;;15.13;11.88;;;;;;;10.00;100.00;151188.22;10500412;28;20044;-70
2023/10/21 01:39:47;;;;;;;14.15;12.38;;;;;;;9.89;100.00;151161.13;10485489;28;20478;-70
2023/10/21 01:44:49;;;;;;;12.27;11.05;;;;;;;9.97;100.00;151180.50;10500311;28;20067;-70
2023/10/21 01:49:51;;;;;;;13.73;12.43;;;;;;;9.71;100.00;151114.69;10481825;28;20052;-70
2023/10/21 01:54:56;;;;;;;13.82;11.32;;;;;;;9.64;100.00;151096.59;10481914;28;20512;-71
2023/10/21 01:59:58;;;;;;;11.32;10.23;;;;;;;9.55;100.00;151074.66;10481864;28;20139;-71
2023/10/21 02:05:00;;;;;;;13.02;11.32;;;;;;;9.64;100.00;151096.59;10483794;28;20135;-70
2023/10/21 02:10:03;;;;;;;10.85;9.85;;;;;;;9.63;100.00;151094.03;10499884;28;20106;-69
2023/10/21 02:15:11;;;;;;;12.80;11.50;;;;;;;9.73;100.00;151121.13;10499135;28;20037;-70
2023/10/21 02:20:14;;;;;;;10.98;10.07;;;;;;;9.63;100.00;151094.03;10481142;28;20098;-70
2023/10/21 02:25:17;;;;;;;11.32;10.23;;;;;;;9.90;100.00;151162.41;10483609;28;20455;-70
2023/10/21 02:30:19;;;;;;;10.77;9.65;;;;;;;9.86;100.00;151153.38;10480518;28;20076;-70
2023/10/21 02:35:21;;;;;;;14.40;10.73;;;;;;;9.95;100.00;151176.59;10480136;28;20102;-69
2023/10/21 02:40:23;;;;;;;11.05;9.95;;;;;;;10.00;100.00;151188.22;10480325;28;20131;-70
2023/10/21 02:45:26;;;;;;;11.52;10.32;;;;;;;9.92;100.00;151168.91;10483045;28;20416;-70
2023/10/21 02:50:28;;;;;;;11.32;10.23;;;;;;;9.93;100.00;151170.19;10498100;28;20048;-69
2023/10/21 02:55:30;;;;;;;10.60;9.52;;;;;;;9.80;100.00;151139.19;10497867;28;20120;-70
2023/10/21 03:00:32;;;;;;;10.88;9.80;;;;;;;9.57;100.00;151079.84;10479913;28;20492;-70
2023/10/21 03:05:33;;;;;;;11.80;10.50;;;;;;;9.76;100.00;151127.59;10482562;28;20048;-69
2023/10/21 03:10:38;;;;;;;14.30;10.73;;;;;;;10.14;100.00;151223.06;10498361;28;20045;-69
2023/10/21 03:15:40;;;;;;;11.10;10.07;;;;;;;9.90;100.00;151163.72;10497505;28;20064;-69
2023/10/21 03:20:41;;;;;;;9.45;8.55;;;;;;;9.79;100.00;151136.63;10479755;28;20051;-69
2023/10/21 03:25:43;;;;;;;9.57;8.63;;;;;;;9.57;100.00;151079.84;10497642;28;20407;-69
2023/10/21 03:30:47;;;;;;;9.18;8.25;;;;;;;9.49;100.00;151059.22;10499520;28;20045;-70
2023/10/21 03:35:52;;;;;;;10.48;9.40;;;;;;;9.69;100.00;151109.50;10497681;28;20102;-70
2023/10/21 03:40:58;;;;;;;10.77;9.77;;;;;;;9.62;100.00;151091.47;10482085;28;20056;-70
2023/10/21 03:46:06;;;;;;;9.80;8.80;;;;;;;9.42;100.00;151042.41;10504865;28;20480;-70
2023/10/21 03:51:11;;;;;;;10.60;9.35;;;;;;;9.48;100.00;151057.94;10508027;28;20472;-70
2023/10/21 03:56:14;;;;;;;10.98;9.65;;;;;;;9.62;100.00;151092.75;10504022;28;20045;-70
2023/10/21 04:01:15;;;;;;;12.32;11.13;;;;;;;9.75;100.00;151125.00;10503739;28;20400;-70
2023/10/21 04:06:18;;;;;;;11.75;10.00;;;;;;;9.56;100.00;151078.56;10504842;28;20119;-70
2023/10/21 04:11:21;;;;;;;12.27;10.35;;;;;;;9.42;100.00;151042.41;10488384;28;20048;-70
2023/10/21 04:16:22;;;;;;;10.70;9.70;;;;;;;9.36;100.00;151026.94;10485552;28;20420;-70
2023/10/21 04:21:25;;;;;;;9.40;8.60;;;;;;;9.28;100.00;151007.59;10503579;28;20040;-70
2023/10/21 04:26:27;;;;;;;10.07;9.18;;;;;;;9.29;100.00;151008.88;10502726;28;20124;-68
2023/10/21 04:31:36;;;;;;;11.07;9.98;;;;;;;9.25;100.00;150999.88;10503058;28;20079;-68
2023/10/21 04:36:38;;;;;;;10.05;8.85;;;;;;;9.14;100.00;150970.19;10504501;28;20067;-67
2023/10/21 04:41:39;;;;;;;12.30;8.45;;;;;;;9.06;100.00;150952.13;10502714;28;20076;-69
2023/10/21 04:46:42;;;;;;;9.82;8.82;;;;;;;8.88;100.00;150904.44;10502302;28;20049;-67
2023/10/21 04:51:45;;;;;;;9.90;8.63;;;;;;;8.80;100.00;150886.34;10502615;28;20083;-72
2023/10/21 04:56:47;;;;;;;9.60;8.60;;;;;;;8.66;100.00;150848.97;10505026;28;20434;-72
2023/10/21 05:01:49;;;;;;;9.38;7.82;;;;;;;8.61;100.00;150836.09;10503463;28;20044;-72
2023/10/21 05:06:50;;;;;;;9.77;8.77;;;;;;;8.56;100.00;150824.50;10501441;28;20605;-72
2023/10/21 05:11:52;;;;;;;9.27;8.35;;;;;;;8.46;100.00;150798.72;10501445;28;20068;-72
2023/10/21 05:16:54;;;;;;;9.43;8.10;;;;;;;8.41;100.00;150787.13;10504320;28;20119;-73
2023/10/21 05:21:56;;;;;;;10.07;8.43;;;;;;;8.50;100.00;150809.00;10484031;28;20041;-73
2023/10/21 05:26:58;;;;;;;10.18;8.98;;;;;;;8.58;100.00;150830.91;10500896;28;20047;-72
2023/10/21 05:32:00;;;;;;;12.68;9.02;;;;;;;8.21;100.00;150735.50;10501925;28;20048;-72
2023/10/21 05:37:02;;;;;;;9.35;7.90;;;;;;;8.25;100.00;150745.81;10501379;28;20053;-72
2023/10/21 05:42:04;;;;;;;5.72;5.05;;;;;;;8.59;100.00;150833.53;10485119;28;20047;-73
2023/10/21 05:47:06;;;;;;;4.20;3.65;;;;;;;9.05;100.00;150948.28;10499943;28;20044;-70
2023/10/21 05:52:07;;;;;;;3.83;2.90;;;;;;;9.29;100.00;151010.16;10499369;28;20409;-70
2023/10/21 05:57:09;;;;;;;3.47;2.38;;;;;;;9.40;100.00;151036.00;10499460;28;20063;-73
2023/10/21 06:02:11;;;;;;;3.30;2.50;;;;;;;9.44;100.00;151046.31;10503529;28;20049;-73
2023/10/21 06:07:13;;;;;;;2.47;2.10;;;;;;;9.47;100.00;151054.03;10499728;28;20128;-72
2023/10/21 06:12:17;;;;;;;2.90;2.35;;;;;;;9.68;100.00;151108.22;10499394;28;20037;-73
2023/10/21 06:17:20;;;;;;;3.97;2.53;;;;;;;9.97;100.00;151180.50;10499562;28;20090;-73
2023/10/21 06:22:22;;;;;;;2.70;2.33;;;;;;;10.32;100.00;151269.63;10502619;28;20052;-72
2023/10/21 06:27:24;;;;;;;3.17;2.10;;;;;;;10.41;100.00;151291.56;10498644;28;20044;-73
2023/10/21 06:32:26;;;;;;;2.22;2.03;;;;;;;10.49;100.00;151313.53;10500260;28;20040;-72
2023/10/21 06:37:28;;;;;;;2.42;2.22;;;;;;;10.59;100.00;151339.31;10499089;28;20413;-72
2023/10/21 06:42:29;;;;;;;2.08;1.73;;;;;;;10.63;100.00;151348.38;10500173;28;20041;-72
2023/10/21 06:47:33;;;;;;;1.50;1.30;;;;;;;10.56;100.00;151331.56;10482089;28;20118;-72
2023/10/21 06:52:34;;;;;;;1.00;0.70;;;;;;;10.92;100.00;151420.66;10498698;28;20484;-72
2023/10/21 06:57:37;;;;;;;1.05;0.65;;;;;;;11.41;100.00;151544.69;10468075;28;20040;-72
2023/10/21 07:02:39;;;;;;;0.93;0.70;;;;;;;11.71;100.00;151620.91;10539532;28;20044;-73
2023/10/21 07:07:41;;;;;;;0.77;0.50;;;;;;;11.75;100.00;151631.25;10542488;28;20404;-72
2023/10/21 07:12:43;;;;;;;0.50;0.50;;;;;;;11.67;100.00;151611.88;10539418;28;20071;-72
2023/10/21 07:17:45;;;;;;;0.60;0.40;;;;;;;11.65;100.00;151605.44;10545438;28;20575;-72
2023/10/21 07:22:49;;;;;;;0.57;0.50;;;;;;;11.75;100.00;151632.53;10548636;28;20511;-72
2023/10/21 07:27:51;;;;;;;1.05;0.60;;;;;;;11.84;100.00;151654.56;10550845;28;20044;-71
2023/10/21 07:32:53;;;;;;;0.43;0.38;;;;;;;12.54;100.00;151832.97;10531112;28;20043;-72
2023/10/21 07:37:56;;;;;;;0.20;0.20;;;;;;;13.50;100.00;152074.88;10547063;28;20046;-72
2023/10/21 07:42:58;;;;;;;0.40;0.35;;;;;;;13.77;100.00;152144.81;10546790;28;20203;-72
2023/10/21 07:48:00;;;;;;;0.30;0.17;;;;;;;13.74;100.00;152135.72;10549162;28;20448;-72
2023/10/21 07:53:02;;;;;;;0.43;0.15;;;;;;;14.31;97.28;152280.72;10546983;28;20058;-71
2023/10/21 07:58:03;;;;;;;0.30;0.20;;;;;;;14.59;93.74;152351.97;10511196;28;20044;-71
2023/10/21 08:03:05;;;;;;;0.10;0.10;;;;;;;14.97;90.27;152449.13;10546371;28;20044;-71
2023/10/21 08:08:07;;;;;;;0.20;0.10;;;;;;;15.42;82.68;152563.13;10545907;28;20044;-72
2023/10/21 08:13:09;;;;;;;0.10;0.10;;;;;;;15.82;78.40;152664.25;10547249;28;20427;-72
2023/10/21 08:18:10;;;;;;;4.18;0.20;;;;;;;16.02;78.73;152714.78;10546471;28;20126;-73
2023/10/21 08:23:12;;;;;;;0.17;0.10;;;;;;;15.92;76.94;152690.16;10545382;28;20089;-74
2023/10/21 08:28:14;;;;;;;0.13;0.08;;;;;;;16.27;73.18;152779.63;10537804;28;20037;-73
2023/10/21 08:33:16;;;;;;;0.17;0.10;;;;;;;16.08;76.93;152731.66;10549067;28;20391;-73
2023/10/21 08:38:18;;;;;;;0.10;0.10;;;;;;;16.39;73.82;152809.47;10510575;28;20504;-73
2023/10/21 08:43:21;;;;;;;1.00;0.10;;;;;;;16.40;74.98;152812.03;10545425;28;20036;-73
2023/10/21 08:48:25;;;;;;;0.30;0.10;;;;;;;16.49;73.94;152835.38;10544680;28;20051;-73
2023/10/21 08:53:27;;;;;;;0.10;0.10;;;;;;;16.39;75.27;152809.47;10527280;28;20415;-73
2023/10/21 08:58:29;;;;;;;0.15;0.10;;;;;;;16.43;74.47;152819.84;10510016;28;20056;-73
2023/10/21 09:03:32;;;;;;;0.20;0.20;;;;;;;16.44;74.86;152821.13;10525676;28;20487;-73
2023/10/21 09:08:34;;;;;;;0.70;0.20;;;;;;;16.77;71.66;152906.75;10544121;28;20048;-72
2023/10/21 09:13:38;;;;;;;0.10;0.10;;;;;;;16.80;72.31;152914.53;10543787;28;20063;-72
2023/10/21 09:18:54;;;;;;;0.20;0.13;;;;;;;16.70;75.79;152888.56;10544542;28;20052;-72
2023/10/21 09:23:56;;;;;;;0.30;0.10;;;;;;;16.83;75.91;152922.34;10526040;28;20396;-73
2023/10/21 09:29:12;;;;;;;0.30;0.10;;;;;;;16.94;73.94;152949.56;10542886;28;20044;-75
2023/10/21 09:34:32;;;;;;;0.00;0.00;;;;;;;16.84;74.14;152923.63;10542545;28;20040;-73
2023/10/21 09:39:36;;;;;;;0.20;0.00;;;;;;;16.94;71.92;152949.56;10523647;28;20044;-74
2023/10/21 09:44:41;;;;;;;0.13;0.10;;;;;;;17.26;67.32;153029.97;10524638;28;20036;-71
2023/10/21 09:49:45;;;;;;;0.40;0.10;;;;;;;17.31;67.71;153044.28;10474663;28;20064;-71
2023/10/21 09:55:07;;;;;;;0.25;0.10;;;;;;;17.16;70.16;153005.34;10530110;28;20400;-72
2023/10/21 10:00:10;;;;;;;0.43;0.20;;;;;;;17.52;66.73;153096.16;10541868;28;20094;-71
2023/10/21 10:05:14;;;;;;;0.10;0.10;;;;;;;17.83;66.80;153175.38;10523187;28;20102;-71
2023/10/21 10:10:17;;;;;;;0.20;0.10;;;;;;;18.17;64.61;153261.06;10526871;28;20048;-71
2023/10/21 10:15:31;;;;;;;0.20;0.17;;;;;;;18.65;61.70;153384.41;10500519;28;20404;-70
2023/10/21 10:20:33;;;;;;;0.00;0.00;;;;;;;18.61;62.58;153374.03;10499128;28;20040;-71
2023/10/21 10:25:37;;;;;;;0.50;0.20;;;;;;;18.93;62.56;153455.88;10498239;28;20094;-71
2023/10/21 10:31:01;;;;;;;0.88;0.20;;;;;;;19.30;60.09;153549.41;10497973;28;20098;-70
2023/10/21 10:36:12;;;;;;;0.30;0.20;;;;;;;19.70;58.02;153652.16;10519133;28;20036;-70
2023/10/21 10:41:18;;;;;;;0.30;0.20;;;;;;;19.71;57.95;153653.44;10521749;28;20036;-71
2023/10/21 10:46:22;;;;;;;0.15;0.10;;;;;;;19.85;57.53;153689.81;10521735;28;20040;-72
2023/10/21 10:51:27;;;;;;;0.50;0.10;;;;;;;19.68;55.87;153646.94;10521464;28;20048;-70
2023/10/21 10:56:39;;;;;;;0.10;0.00;;;;;;;19.62;55.77;153631.34;10540503;28;20033;-71
2023/10/21 11:01:41;;;;;;;0.10;0.10;;;;;;;19.78;56.79;153671.59;10539373;28;20101;-69
2023/10/21 11:06:45;;;;;;;0.00;0.00;;;;;;;19.96;56.26;153717.09;10538960;28;20051;-69
2023/10/21 11:11:48;;;;;;;0.38;0.38;;;;;;;20.23;55.65;153786.00;10539346;28;20393;-70
2023/10/21 11:17:10;;;;;;;0.20;0.10;;;;;;;20.03;53.64;153736.59;10539285;28;20040;-71
2023/10/21 11:22:20;;;;;;;0.47;0.10;;;;;;;20.33;53.29;153813.31;10522338;28;20580;-71
2023/10/21 11:27:22;;;;;;;0.10;0.10;;;;;;;20.65;55.67;153893.97;10539307;28;20044;-72
2023/10/21 11:32:28;;;;;;;0.10;0.10;;;;;;;21.24;53.36;154044.84;10538960;28;20097;-71
2023/10/21 11:37:31;;;;;;;0.38;0.10;;;;;;;21.09;54.14;154007.13;10538486;28;20042;-69
2023/10/21 11:42:33;;;;;;;0.10;0.00;;;;;;;21.29;56.21;154056.53;10521322;28;20056;-69
2023/10/21 11:47:35;;;;;;;0.08;0.05;;;;;;;21.78;53.60;154181.50;10538314;28;20062;-69
2023/10/21 11:52:38;;;;;;;0.10;0.00;;;;;;;21.54;51.92;154121.66;10538877;28;20115;-70
2023/10/21 12:40:18;;;;;;;0.20;0.00;;;;;;;18.59;61.68;153370.16;10502574;28;20090;-68
2023/10/21 12:45:19;;;;;;;0.20;0.10;;;;;;;18.50;60.49;153346.72;10526702;28;20070;-68
2023/10/21 12:50:21;;;;;;;0.03;0.00;;;;;;;18.50;61.69;153346.72;10543777;28;20449;-68
2023/10/21 12:55:25;;;;;;;0.10;0.10;;;;;;;18.53;61.21;153354.53;10542969;28;20060;-69
2023/10/21 13:00:27;;;;;;;0.03;0.00;;;;;;;18.65;61.21;153384.41;10528992;28;20044;-67
2023/10/21 13:05:29;;;;;;;0.45;0.10;;;;;;;18.42;62.59;153326.00;10500524;28;20489;-68
2023/10/21 13:10:32;;;;;;;0.10;0.10;;;;;;;18.56;60.73;153361.03;10502253;28;20044;-68
2023/10/21 13:15:36;;;;;;;0.00;0.00;;;;;;;18.54;60.07;153357.13;10499198;28;20044;-68
2023/10/21 13:20:39;;;;;;;0.22;0.00;;;;;;;18.71;59.87;153400.03;10500700;28;20045;-67
2023/10/21 13:25:41;;;;;;;0.00;0.00;;;;;;;18.22;63.57;153274.03;10500276;28;20111;-68
2023/10/21 13:30:44;;;;;;;0.00;0.00;;;;;;;18.03;63.80;153226.03;10500891;28;20045;-67
2023/10/21 13:35:46;;;;;;;0.00;0.00;;;;;;;18.14;63.69;153254.56;10499885;28;20078;-67
2023/10/21 13:40:52;;;;;;;0.00;0.00;;;;;;;18.09;64.54;153241.56;10499749;28;20115;-69
2023/10/21 13:45:54;;;;;;;;;;;;;;;17.93;65.17;153200.03;10500332;28;20222;-69
2023/10/21 13:50:55;;;;;;;0.00;0.00;;;;;;;18.01;64.85;153222.09;10501504;28;20330;-68
2023/10/21 13:55:57;;;;;;;0.43;0.20;;;;;;;17.87;66.09;153187.06;10498723;28;20032;-68
2023/10/21 14:00:59;;;;;;;0.40;0.20;;;;;;;17.77;68.62;153161.09;10498814;28;20123;-68
2023/10/21 14:06:04;;;;;;;0.00;0.00;;;;;;;17.88;66.97;153189.69;10498704;28;20041;-68
2023/10/21 14:11:08;;;;;;;0.10;0.10;;;;;;;17.73;68.58;153149.38;10499638;28;20036;-68
2023/10/21 14:16:11;;;;;;;0.25;0.00;;;;;;;17.85;70.72;153180.59;10499477;28;20044;-68
2023/10/21 14:21:13;;;;;;;0.20;0.10;;;;;;;17.69;72.07;153139.00;10498879;28;20076;-68
2023/10/21 14:26:15;;;;;;;0.10;0.10;;;;;;;17.61;73.76;153120.81;10497762;28;20036;-68
2023/10/21 14:31:26;;;;;;;0.10;0.10;;;;;;;17.43;75.62;153074.09;10498047;28;20142;-68
2023/10/21 14:36:28;;;;;;;0.20;0.10;;;;;;;17.28;75.80;153035.19;10499190;28;20488;-68
2023/10/21 14:41:31;;;;;;;0.10;0.10;;;;;;;17.34;76.03;153050.75;10498377;28;20487;-69
2023/10/21 14:46:33;;;;;;;0.22;0.20;;;;;;;17.19;76.28;153011.84;10498994;28;20123;-68
2023/10/21 14:51:35;;;;;;;0.40;0.40;;;;;;;17.08;76.59;152984.56;10497512;28;20049;-68
2023/10/21 14:56:37;;;;;;;0.20;0.10;;;;;;;17.06;77.70;152980.69;10498173;28;20044;-68
2023/10/21 15:01:40;;;;;;;0.40;0.30;;;;;;;17.04;78.97;152975.47;10497513;28;20127;-68
2023/10/21 15:06:42;;;;;;;0.10;0.10;;;;;;;16.98;82.20;152959.94;10497378;28;20071;-69
2023/10/21 15:11:44;;;;;;;0.60;0.40;;;;;;;16.90;85.64;152939.16;10497359;28;20078;-68
2023/10/21 15:16:46;;;;;;;0.40;0.40;;;;;;;16.62;88.50;152869.09;10497554;28;20040;-68
2023/10/21 15:21:48;;;;;;;0.50;0.30;;;;;;;16.41;91.19;152814.63;10498157;28;20052;-68
2023/10/21 15:26:51;;;;;;;0.93;0.50;;;;;;;16.24;92.12;152771.81;10497176;28;20048;-68
2023/10/21 15:31:53;;;;;;;1.23;0.93;;;;;;;16.02;93.79;152714.78;10496955;28;20040;-68
2023/10/21 15:36:55;;;;;;;1.50;1.00;;;;;;;15.91;95.38;152687.59;10501029;28;20048;-68
2023/10/21 15:41:58;;;;;;;1.35;1.00;;;;;;;15.62;97.22;152614.94;10505529;28;20037;-68
2023/10/21 15:47:00;;;;;;;2.20;1.98;;;;;;;15.44;99.05;152567.00;10505238;28;20536;-68
2023/10/21 15:52:02;;;;;;;2.67;1.80;;;;;;;15.21;100.00;152510.00;10503272;28;20044;-68
2023/10/21 15:57:04;;;;;;;1.40;1.02;;;;;;;14.97;100.00;152447.84;10504376;28;20068;-68
2023/10/21 16:02:06;;;;;;;1.15;0.80;;;;;;;14.69;100.00;152376.56;10505677;28;20079;-68
2023/10/21 16:07:08;;;;;;;1.38;0.90;;;;;;;14.65;100.00;152367.50;10504847;28;20116;-68
2023/10/21 16:12:12;;;;;;;1.30;1.00;;;;;;;14.37;100.00;152297.53;10505212;28;20114;-67
2023/10/21 16:17:14;;;;;;;1.23;0.98;;;;;;;14.21;100.00;152256.13;10506078;28;20429;-68
2023/10/21 16:22:16;;;;;;;1.98;1.17;;;;;;;14.02;100.00;152208.19;10506052;28;20416;-67
2023/10/21 16:27:17;;;;;;;1.42;1.08;;;;;;;13.90;100.00;152177.16;10504562;28;20043;-68
2023/10/21 16:32:19;;;;;;;1.45;1.15;;;;;;;13.79;100.00;152148.66;10504036;28;20079;-67
2023/10/21 16:37:21;;;;;;;1.60;1.35;;;;;;;13.65;100.00;152113.72;10553744;28;20507;-68
2023/10/21 16:42:23;;;;;;;1.98;1.42;;;;;;;13.56;100.00;152091.72;10576046;28;20063;-68
2023/10/21 16:47:25;;;;;;;1.30;1.20;;;;;;;13.56;100.00;152091.72;10590638;28;20050;-68
2023/10/21 16:52:27;;;;;;;2.42;1.50;;;;;;;13.47;100.00;152067.16;10590884;28;20120;-68
2023/10/21 16:57:31;;;;;;;1.85;1.20;;;;;;;13.53;100.00;152083.94;10570384;28;20563;-68
2023/10/21 17:02:35;;;;;;;2.35;1.60;;;;;;;13.59;100.00;152098.16;10568637;28;20056;-68
2023/10/21 17:07:37;;;;;;;1.73;1.20;;;;;;;13.45;100.00;152061.94;10587185;28;20058;-67
2023/10/21 17:12:39;;;;;;;1.73;1.45;;;;;;;13.28;100.00;152020.59;10586329;28;20043;-67
2023/10/21 17:17:41;;;;;;;113.43;52.55;;;;;;;13.13;100.00;151982.97;10584728;28;20040;-68
2023/10/21 17:22:43;;;;;;;113.93;52.22;;;;;;;13.00;100.00;151948.06;10585236;28;20039;-68
2023/10/21 17:27:45;;;;;;;46.83;27.00;;;;;;;12.86;100.00;151913.16;10584984;28;20459;-68
2023/10/21 17:32:46;;;;;;;16.48;13.60;;;;;;;12.76;100.00;151887.28;10584234;28;20058;-68
2023/10/21 17:37:48;;;;;;;15.85;13.32;;;;;;;13.05;100.00;151961.00;10583854;28;20461;-67
2023/10/21 17:42:50;;;;;;;7.50;6.68;;;;;;;13.01;100.00;151950.63;10583876;28;20047;-67
2023/10/21 17:47:52;;;;;;;4.28;3.80;;;;;;;12.87;100.00;151915.72;10584710;28;20118;-68
2023/10/21 17:52:54;;;;;;;4.38;3.25;;;;;;;12.69;100.00;151869.16;10584773;28;20051;-68
2023/10/21 17:57:56;;;;;;;3.72;2.97;;;;;;;12.60;100.00;151848.47;10568250;28;20029;-68
2023/10/21 18:02:59;;;;;;;4.65;2.95;;;;;;;12.51;100.00;151825.19;10557882;28;20094;-68
2023/10/21 18:08:01;;;;;;;2.97;2.33;;;;;;;12.55;100.00;151835.53;10566297;28;20039;-68
2023/10/21 18:13:04;;;;;;;7.57;6.78;;;;;;;12.51;100.00;151823.91;10583393;28;20459;-68
2023/10/21 18:18:07;;;;;;;13.23;11.90;;;;;;;12.61;100.00;151851.03;10583211;28;20122;-67
2023/10/21 18:23:09;;;;;;;12.27;11.27;;;;;;;12.51;100.00;151825.19;10582948;28;20509;-68
2023/10/21 18:28:11;;;;;;;10.95;10.05;;;;;;;12.60;100.00;151847.19;10583100;28;20036;-69
2023/10/21 18:33:13;;;;;;;6.40;5.80;;;;;;;12.69;100.00;151870.44;10583226;28;20123;-69
2023/10/21 18:38:18;;;;;;;5.40;4.88;;;;;;;12.69;100.00;151869.16;10582928;28;20039;-68
2023/10/21 18:43:20;;;;;;;5.95;5.35;;;;;;;12.63;100.00;151856.25;10582701;28;20069;-68
2023/10/21 18:48:22;;;;;;;7.07;6.38;;;;;;;12.73;100.00;151880.81;10582328;28;20039;-68
2023/10/21 18:53:24;;;;;;;6.90;6.20;;;;;;;12.62;100.00;151852.38;10582358;28;20039;-68
2023/10/21 18:58:25;;;;;;;6.43;5.90;;;;;;;12.54;100.00;151832.97;10583089;28;20035;-67
2023/10/21 19:03:27;;;;;;;8.57;7.60;;;;;;;12.51;100.00;151823.91;10583102;28;20071;-69
2023/10/21 19:08:29;;;;;;;5.47;4.72;;;;;;;12.72;100.00;151878.22;10582008;28;20036;-68
2023/10/21 19:13:31;;;;;;;4.82;4.18;;;;;;;12.91;100.00;151926.06;10589571;28;20105;-69
2023/10/21 19:18:32;;;;;;;4.43;4.03;;;;;;;12.80;100.00;151898.94;10591951;28;20101;-69
2023/10/21 19:23:36;;;;;;;3.47;3.17;;;;;;;12.64;100.00;151857.53;10590368;28;20043;-69
2023/10/21 19:28:38;;;;;;;12.18;5.95;;;;;;;12.54;100.00;151831.69;10589813;28;20063;-69
2023/10/21 19:33:40;;;;;;;5.38;4.88;;;;;;;13.02;100.00;151954.56;10571596;28;20142;-69
2023/10/21 19:38:43;;;;;;;4.53;3.83;;;;;;;12.91;100.00;151926.06;10591634;28;20445;-68
2023/10/21 19:43:46;;;;;;;3.60;3.30;;;;;;;12.57;100.00;151840.75;10589145;28;20071;-69
2023/10/21 19:48:48;;;;;;;3.72;3.10;;;;;;;12.53;100.00;151830.41;10589953;28;20050;-69
2023/10/21 19:53:52;;;;;;;4.07;3.67;;;;;;;12.60;100.00;151848.47;10570710;28;20081;-68
2023/10/21 19:58:54;;;;;;;4.05;3.65;;;;;;;12.67;100.00;151865.31;10588652;28;20104;-69
2023/10/21 20:03:56;;;;;;;3.78;3.42;;;;;;;12.66;100.00;151862.72;10590239;28;20051;-69
2023/10/21 20:08:58;;;;;;;4.22;3.67;;;;;;;12.56;100.00;151836.84;10589494;28;20437;-68
2023/10/21 20:14:00;;;;;;;3.65;3.33;;;;;;;12.56;100.00;151838.13;10589780;28;20456;-69
2023/10/21 20:19:02;;;;;;;4.07;3.70;;;;;;;12.80;100.00;151898.94;10589614;28;20571;-69
2023/10/21 20:24:04;;;;;;;3.83;3.53;;;;;;;12.75;100.00;151886.00;10589960;28;20047;-69
2023/10/21 20:29:06;;;;;;;2.95;2.63;;;;;;;12.53;100.00;151829.09;10588258;28;20047;-69
2023/10/21 20:34:08;;;;;;;3.83;3.50;;;;;;;12.35;100.00;151785.16;10587515;28;20046;-69
2023/10/21 20:39:11;;;;;;;3.53;3.22;;;;;;;12.44;100.00;151805.78;10587518;28;20046;-70
2023/10/21 20:44:13;;;;;;;3.28;2.95;;;;;;;12.84;100.00;151908.00;10589292;28;20073;-69
2023/10/21 20:49:15;;;;;;;3.92;3.40;;;;;;;12.53;100.00;151830.41;10587379;28;20123;-69
2023/10/21 20:54:17;;;;;;;4.22;3.83;;;;;;;12.38;100.00;151792.88;10586643;28;20050;-69
2023/10/21 20:59:19;;;;;;;4.28;3.88;;;;;;;12.35;100.00;151783.81;10586300;28;20118;-68
2023/10/21 21:04:20;;;;;;;3.58;3.25;;;;;;;12.40;100.00;151795.50;10585990;28;20495;-69
2023/10/21 21:09:22;;;;;;;4.78;3.50;;;;;;;12.37;100.00;151790.28;10588422;28;20044;-68
2023/10/21 21:14:24;;;;;;;3.67;2.83;;;;;;;12.91;100.00;151926.06;10585700;28;20515;-69
2023/10/21 21:19:26;;;;;;;4.03;2.70;;;;;;;12.58;100.00;151843.31;10585386;28;20541;-69
2023/10/21 21:24:28;;;;;;;2.42;2.10;;;;;;;12.52;100.00;151826.47;10584585;28;20131;-69
2023/10/21 21:29:30;;;;;;;3.13;2.83;;;;;;;12.34;100.00;151781.22;10586377;28;20067;-68
2023/10/21 21:34:31;;;;;;;3.20;2.25;;;;;;;12.19;100.00;151742.47;10583519;28;20074;-68
2023/10/21 21:39:33;;;;;;;3.15;2.15;;;;;;;12.12;100.00;151726.94;10584379;28;20065;-69
2023/10/21 21:44:36;;;;;;;3.20;2.33;;;;;;;12.44;100.00;151807.13;10565629;28;20503;-68
2023/10/21 21:49:37;;;;;;;3.47;2.75;;;;;;;12.51;100.00;151823.91;10584872;28;20048;-68
2023/10/21 21:54:42;;;;;;;4.65;2.50;;;;;;;12.24;100.00;151756.69;10583482;28;20091;-68
2023/10/21 21:59:46;;;;;;;8.77;2.85;;;;;;;12.01;100.00;151697.22;10583106;28;20051;-68
2023/10/21 22:04:48;;;;;;;3.80;3.35;;;;;;;12.05;100.00;151708.88;10583716;28;20384;-71
2023/10/21 22:09:50;;;;;;;2.78;2.50;;;;;;;12.53;100.00;151830.41;10583015;28;20554;-69
2023/10/21 22:14:52;;;;;;;2.60;2.40;;;;;;;12.36;100.00;151786.44;10583956;28;20042;-68
2023/10/21 22:19:54;;;;;;;2.83;2.38;;;;;;;12.05;100.00;151708.88;10582543;28;20100;-69
2023/10/21 22:24:55;;;;;;;3.95;2.67;;;;;;;11.97;100.00;151688.16;10582162;28;20043;-68
2023/10/21 22:30:00;;;;;;;3.70;3.30;;;;;;;12.25;100.00;151757.97;10582231;28;20050;-68
2023/10/21 22:35:04;;;;;;;3.33;2.83;;;;;;;12.14;100.00;151730.84;10565060;28;20050;-67
2023/10/21 22:40:13;;;;;;;3.20;2.90;;;;;;;12.07;100.00;151714.00;10582010;28;20047;-68
2023/10/21 22:45:16;;;;;;;2.88;2.60;;;;;;;12.08;100.00;151715.28;10582717;28;20051;-68
2023/10/21 22:50:21;;;;;;;3.35;2.88;;;;;;;12.04;100.00;151706.28;10582348;28;20044;-68
2023/10/21 22:55:22;;;;;;;6.57;5.97;;;;;;;12.02;100.00;151699.81;10583077;28;20040;-68
2023/10/21 23:00:27;;;;;;;6.57;5.85;;;;;;;11.93;100.00;151676.53;10581408;28;20051;-68
2023/10/21 23:05:35;;;;;;;5.13;4.65;;;;;;;11.93;100.00;151676.53;10562926;28;20437;-68
2023/10/21 23:10:38;;;;;;;5.35;4.85;;;;;;;12.05;100.00;151707.56;10581497;28;20044;-69
2023/10/21 23:15:43;;;;;;;5.70;5.18;;;;;;;11.99;100.00;151692.03;10580581;28;20126;-69
2023/10/21 23:20:45;;;;;;;7.03;5.60;;;;;;;12.26;100.00;151761.88;10582532;28;20048;-69
2023/10/21 23:25:48;;;;;;;5.72;5.13;;;;;;;12.52;100.00;151826.47;10582745;28;20055;-69
2023/10/21 23:30:50;;;;;;;5.95;5.40;;;;;;;12.41;100.00;151798.06;10581720;28;20399;-69
2023/10/21 23:35:52;;;;;;;5.80;5.30;;;;;;;12.16;100.00;151734.69;10563302;28;20122;-68
2023/10/21 23:40:55;;;;;;;5.60;4.95;;;;;;;12.08;100.00;151715.28;10582565;28;20075;-69
2023/10/21 23:46:08;;;;;;;5.07;4.68;;;;;;;11.96;100.00;151685.59;10580379;28;20050;-69